Time;durP1;ratioP1;P1;durP2;ratioP2;P2;SDS_P1;SDS_P2;PMS_P1;PMS_P2;Temp;Humidity;BMP_temperature;BMP_pressure;BME280_temperature;BME280_humidity;BME280_pressure;Samples;Min_cycle;Max_cycle;Signal;HPM_P1;HPM_P2
2022/09/22 00:00:42;;;;;;;7.72;2.45;;;;;;;12.78;54.45;99128.59;4486755;32;20155;-85
2022/09/22 00:03:07;;;;;;;9.27;2.70;;;;;;;12.97;54.14;99130.19;4485597;32;20163;-85
2022/09/22 00:05:33;;;;;;;7.10;2.37;;;;;;;12.80;54.56;99128.53;4485678;32;20123;-85
2022/09/22 00:08:00;;;;;;;7.72;2.50;;;;;;;12.70;54.53;99128.22;4485502;32;20114;-85
2022/09/22 00:10:25;;;;;;;6.90;2.23;;;;;;;12.53;54.83;99136.25;4485571;32;20085;-85
2022/09/22 00:12:53;;;;;;;6.65;2.35;;;;;;;12.56;55.07;99131.66;4486632;31;20237;-85
2022/09/22 00:15:18;;;;;;;7.00;2.58;;;;;;;12.64;54.93;99123.28;4485343;32;20092;-85
2022/09/22 00:17:44;;;;;;;5.93;2.22;;;;;;;12.57;54.99;99120.16;4486614;31;20133;-85
2022/09/22 00:20:12;;;;;;;7.70;2.42;;;;;;;12.79;54.39;99124.19;4485414;32;20115;-85
2022/09/22 00:22:37;;;;;;;;;;;;;;;12.44;55.32;99123.56;4485950;32;20091;-85
2022/09/22 00:25:03;;;;;;;7.43;2.50;;;;;;;12.67;54.78;99128.41;4485576;32;20035;-85
2022/09/22 00:27:28;;;;;;;7.30;2.40;;;;;;;12.53;55.13;99125.69;4486884;31;20088;-84
2022/09/22 00:29:54;;;;;;;7.50;2.20;;;;;;;12.14;56.39;99132.28;4485036;32;20092;-84
2022/09/22 00:32:19;;;;;;;6.70;2.53;;;;;;;12.41;55.49;99119.31;4486346;32;20088;-84
2022/09/22 00:34:45;;;;;;;8.68;2.70;;;;;;;11.96;57.09;99129.72;4486059;31;20114;-84
2022/09/22 00:37:10;;;;;;;7.53;2.47;;;;;;;11.84;57.28;99125.09;4486145;31;20203;-84
2022/09/22 00:39:36;;;;;;;7.70;2.83;;;;;;;12.24;56.26;99120.25;4485077;32;20132;-84
2022/09/22 00:42:01;;;;;;;7.80;2.60;;;;;;;12.07;56.86;99125.63;4485101;32;20131;-84
2022/09/22 00:44:41;;;;;;;8.20;2.60;;;;;;;12.18;56.80;99118.81;4486241;31;20163;-85
2022/09/22 00:47:19;;;;;;;8.25;2.35;;;;;;;12.52;55.73;99116.91;4485031;32;20093;-86
2022/09/22 00:50:06;;;;;;;6.62;2.17;;;;;;;12.61;55.38;99114.66;4485166;32;20100;-86
2022/09/22 00:52:38;;;;;;;6.85;2.10;;;;;;;12.74;55.16;99111.22;4488068;31;20096;-83
2022/09/22 00:55:09;;;;;;;7.68;2.42;;;;;;;12.75;55.12;99112.94;4487009;32;20096;-83
2022/09/22 00:57:35;;;;;;;8.07;2.67;;;;;;;12.67;55.38;99112.53;4487045;32;20096;-84
2022/09/22 01:00:04;;;;;;;8.48;2.55;;;;;;;12.74;55.18;99108.56;4486986;32;20111;-84
2022/09/22 01:02:30;;;;;;;7.18;2.22;;;;;;;12.75;55.23;99112.09;4486958;32;20471;-83
2022/09/22 01:04:56;;;;;;;8.05;2.78;;;;;;;12.82;55.04;99108.13;4487241;32;20101;-83
2022/09/22 01:07:24;;;;;;;8.60;2.50;;;;;;;12.73;55.24;99109.53;4488389;31;20085;-84
2022/09/22 01:09:51;;;;;;;8.95;2.78;;;;;;;12.59;55.44;99112.09;4474124;32;20155;-83
2022/09/22 01:12:16;;;;;;;8.15;2.70;;;;;;;12.39;55.87;99098.25;4474200;32;20119;-84
2022/09/22 01:14:51;;;;;;;7.28;2.45;;;;;;;12.45;55.69;99097.06;4486948;32;20140;-85
2022/09/22 01:17:43;;;;;;;8.75;2.45;;;;;;;12.57;55.28;99091.09;4488091;31;20093;-84
2022/09/22 01:20:19;;;;;;;7.47;2.22;;;;;;;12.74;54.88;99098.00;4488120;31;20076;-85
2022/09/22 01:22:59;;;;;;;7.68;2.55;;;;;;;12.84;54.80;99087.75;4487045;32;20134;-85
2022/09/22 01:25:44;;;;;;;8.18;2.90;;;;;;;12.90;54.73;99091.81;4486815;32;20531;-85
2022/09/22 01:28:14;;;;;;;8.52;2.50;;;;;;;12.74;55.36;99089.22;4487907;31;20238;-85
2022/09/22 01:31:02;;;;;;;8.15;2.58;;;;;;;12.75;55.19;99097.06;4486910;32;20631;-85
2022/09/22 01:33:40;;;;;;;8.32;2.50;;;;;;;12.84;55.00;99092.19;4486855;32;20104;-85
2022/09/22 01:36:24;;;;;;;7.20;2.30;;;;;;;12.89;54.93;99087.50;4486774;32;20112;-85
2022/09/22 01:39:07;;;;;;;7.68;2.42;;;;;;;12.87;54.95;99094.66;4487885;31;20076;-85
2022/09/22 01:41:52;;;;;;;7.50;2.37;;;;;;;12.88;54.91;99080.47;4487889;31;20068;-85
2022/09/22 01:44:42;;;;;;;8.13;2.62;;;;;;;12.91;54.91;99090.88;4486680;32;20486;-85
2022/09/22 01:47:18;;;;;;;7.20;2.42;;;;;;;12.73;55.11;99095.47;4487619;32;20100;-85
2022/09/22 01:49:48;;;;;;;6.60;2.35;;;;;;;12.88;54.79;99091.06;4488108;31;20115;-85
2022/09/22 01:52:24;;;;;;;7.62;2.60;;;;;;;12.86;54.83;99096.44;4486922;32;20092;-86
2022/09/22 01:55:00;;;;;;;8.27;2.47;;;;;;;12.44;55.66;99105.94;4486666;32;20179;-85
2022/09/22 01:57:40;;;;;;;7.12;2.33;;;;;;;12.36;55.96;99090.53;4486979;32;20120;-85
2022/09/22 02:00:08;;;;;;;7.20;2.53;;;;;;;12.24;56.42;99091.19;4488119;31;20080;-85
2022/09/22 02:02:37;;;;;;;9.70;3.62;;;;;;;12.58;55.38;99086.63;4486309;32;20080;-85
2022/09/22 02:05:05;;;;;;;7.72;2.40;;;;;;;12.68;55.42;99079.88;4486432;32;20172;-85
2022/09/22 02:07:40;;;;;;;;;;;;;;;12.64;55.77;99083.62;4486848;32;20100;-86
2022/09/22 02:10:09;;;;;;;6.37;2.00;;;;;;;12.34;56.01;99087.13;4486639;32;19986;-85
2022/09/22 02:12:35;;;;;;;6.68;2.40;;;;;;;12.09;56.85;99084.13;4486515;32;20110;-85
2022/09/22 02:15:03;;;;;;;7.00;2.30;;;;;;;11.96;57.38;99097.19;4486419;32;20400;-85
2022/09/22 02:17:29;;;;;;;7.87;2.30;;;;;;;12.18;56.83;99091.56;4486465;32;20455;-85
2022/09/22 02:19:55;;;;;;;9.70;2.80;;;;;;;11.89;57.52;99099.31;4486483;32;20150;-85
2022/09/22 02:22:20;;;;;;;8.73;2.95;;;;;;;11.70;58.51;99096.78;4486293;32;20120;-86
2022/09/22 02:24:46;;;;;;;9.70;2.85;;;;;;;11.74;58.36;99089.53;4487439;31;20399;-86
2022/09/22 02:27:22;;;;;;;7.25;2.45;;;;;;;11.66;58.72;99095.25;4486380;32;20149;-86
2022/09/22 02:30:14;;;;;;;9.02;2.62;;;;;;;12.08;57.47;99090.38;4487626;31;20076;-86
2022/09/22 02:32:42;;;;;;;7.57;2.60;;;;;;;12.23;57.04;99088.63;4487251;31;20136;-86
2022/09/22 02:35:09;;;;;;;7.30;2.25;;;;;;;12.09;57.19;99087.66;4486271;32;20141;-86
2022/09/22 02:37:58;;;;;;;7.32;2.33;;;;;;;12.04;57.19;99094.97;4486301;32;20130;-85
2022/09/22 02:40:42;;;;;;;6.95;2.50;;;;;;;12.14;56.76;99092.66;4487577;31;20157;-86
2022/09/22 02:43:27;;;;;;;7.72;2.72;;;;;;;12.29;56.53;99094.44;4487584;31;20636;-86
2022/09/22 02:45:58;;;;;;;7.20;2.62;;;;;;;11.55;58.50;99101.13;4486244;32;20204;-84
2022/09/22 02:48:27;;;;;;;8.38;2.42;;;;;;;11.71;57.95;99101.13;4486369;32;20108;-85
2022/09/22 02:50:53;;;;;;;7.85;2.53;;;;;;;11.40;59.21;99094.00;4486142;32;20092;-84
2022/09/22 02:53:18;;;;;;;8.25;2.58;;;;;;;11.87;57.71;99092.38;4486116;32;20080;-84
2022/09/22 02:55:45;;;;;;;7.25;2.47;;;;;;;12.10;57.12;99085.84;4472896;32;20176;-84
2022/09/22 02:58:11;;;;;;;8.18;2.83;;;;;;;11.99;57.83;99097.00;4487462;31;20097;-84
2022/09/22 03:00:37;;;;;;;8.75;2.53;;;;;;;11.84;58.20;99092.53;4486233;32;20080;-84
2022/09/22 03:03:03;;;;;;;7.75;2.50;;;;;;;11.96;57.98;99092.75;4487178;31;20134;-85
2022/09/22 03:05:28;;;;;;;8.98;2.45;;;;;;;12.19;57.22;99080.06;4487307;31;20104;-83
2022/09/22 03:07:53;;;;;;;6.93;2.35;;;;;;;12.32;56.98;99075.78;4485983;32;20119;-83
2022/09/22 03:10:19;;;;;;;8.10;2.50;;;;;;;12.35;56.93;99072.94;4487282;31;20502;-82
2022/09/22 03:12:44;;;;;;;7.12;2.30;;;;;;;12.43;56.87;99071.66;4487219;31;20227;-83
2022/09/22 03:15:11;;;;;;;6.82;2.17;;;;;;;12.45;56.72;99075.91;4485821;31;20119;-82
2022/09/22 03:17:37;;;;;;;7.97;2.62;;;;;;;12.48;56.67;99081.03;4487225;31;20135;-82
2022/09/22 03:20:04;;;;;;;7.45;2.55;;;;;;;12.48;56.61;99074.91;4487156;31;20476;-86
2022/09/22 03:22:29;;;;;;;7.75;2.58;;;;;;;12.56;56.33;99070.03;4486064;32;20081;-85
2022/09/22 03:24:55;;;;;;;6.93;2.50;;;;;;;12.52;56.28;99071.13;4486962;31;20389;-85
2022/09/22 03:27:20;;;;;;;8.18;2.37;;;;;;;12.50;56.29;99075.66;4485973;32;20132;-85
2022/09/22 03:29:46;;;;;;;8.55;2.67;;;;;;;12.51;56.23;99072.06;4472984;32;20084;-85
2022/09/22 03:32:11;;;;;;;7.97;2.50;;;;;;;12.50;56.20;99065.09;4486177;32;20126;-85
2022/09/22 03:34:36;;;;;;;9.00;2.60;;;;;;;12.47;56.21;99067.91;4487078;31;20081;-86
2022/09/22 03:37:03;;;;;;;7.95;2.50;;;;;;;12.50;56.08;99065.09;4485638;32;20128;-85
2022/09/22 03:39:28;;;;;;;7.78;2.35;;;;;;;12.36;56.36;99072.03;4487102;31;20084;-85
2022/09/22 03:41:53;;;;;;;7.40;2.42;;;;;;;12.40;56.34;99064.78;4485835;32;20150;-86
2022/09/22 03:44:19;;;;;;;7.20;2.20;;;;;;;12.51;56.02;99077.34;4486989;31;20108;-87
2022/09/22 03:46:44;;;;;;;7.35;2.37;;;;;;;12.55;55.95;99070.94;4485621;32;20096;-87
2022/09/22 03:49:10;;;;;;;5.90;2.10;;;;;;;12.20;56.60;99076.47;4485638;32;20080;-87
2022/09/22 03:51:35;;;;;;;9.48;2.70;;;;;;;12.35;56.40;99072.94;4486994;31;20133;-85
2022/09/22 03:54:01;;;;;;;8.82;2.65;;;;;;;12.42;56.26;99077.88;4486829;31;20097;-85
2022/09/22 03:56:26;;;;;;;6.57;2.30;;;;;;;12.36;56.38;99069.38;4485696;32;20113;-86
2022/09/22 03:58:52;;;;;;;7.05;2.30;;;;;;;12.43;56.18;99080.44;4486873;31;20426;-84
2022/09/22 04:01:17;;;;;;;6.87;2.17;;;;;;;12.43;56.22;99076.94;4486777;31;20126;-82
2022/09/22 04:03:42;;;;;;;7.97;2.40;;;;;;;12.43;56.21;99069.88;4486854;31;20096;-82
2022/09/22 04:06:08;;;;;;;6.75;2.30;;;;;;;12.47;56.09;99071.37;4485450;32;20092;-82
2022/09/22 04:08:34;;;;;;;7.28;2.30;;;;;;;12.42;56.24;99076.09;4485565;32;20083;-82
2022/09/22 04:11:00;;;;;;;6.55;2.20;;;;;;;12.48;56.06;99064.34;4486713;31;20462;-82
2022/09/22 04:13:26;;;;;;;6.62;2.20;;;;;;;12.51;56.01;99059.69;4485827;31;20133;-78
2022/09/22 04:15:51;;;;;;;7.10;2.17;;;;;;;12.51;55.96;99059.69;4466537;32;20108;-82
2022/09/22 04:18:16;;;;;;;7.85;2.60;;;;;;;12.49;56.01;99063.37;4467046;32;20156;-81
2022/09/22 04:20:43;;;;;;;6.45;2.12;;;;;;;12.42;56.06;99062.91;4467743;32;20085;-82
2022/09/22 04:23:12;;;;;;;7.07;2.15;;;;;;;12.49;55.96;99068.66;4453686;32;20195;-79
2022/09/22 04:25:38;;;;;;;7.25;2.40;;;;;;;12.39;56.19;99071.00;4452261;32;20119;-81
2022/09/22 04:28:04;;;;;;;7.93;2.10;;;;;;;12.29;56.38;99068.03;4451647;32;20108;-81
2022/09/22 04:30:29;;;;;;;7.93;2.42;;;;;;;12.39;56.18;99071.00;4451648;32;20138;-82
2022/09/22 04:32:55;;;;;;;7.22;2.25;;;;;;;12.35;56.37;99074.75;4452472;32;20105;-82
2022/09/22 04:35:20;;;;;;;7.78;2.15;;;;;;;12.38;56.20;99078.06;4452407;32;20135;-81
2022/09/22 04:37:46;;;;;;;7.05;2.17;;;;;;;12.41;56.06;99073.56;4452453;32;20401;-82
2022/09/22 04:40:11;;;;;;;6.47;2.00;;;;;;;12.42;56.10;99083.16;4452634;32;20085;-82
2022/09/22 04:42:37;;;;;;;6.57;2.30;;;;;;;12.45;56.06;99089.13;4463589;32;20145;-84
2022/09/22 04:45:05;;;;;;;6.47;2.25;;;;;;;12.32;56.26;99083.72;4470626;32;20101;-82
2022/09/22 04:47:31;;;;;;;7.15;2.28;;;;;;;12.11;56.63;99088.41;4456280;32;20134;-82
2022/09/22 04:49:57;;;;;;;6.97;2.22;;;;;;;12.25;56.33;99086.78;4470519;32;20077;-82
2022/09/22 04:52:22;;;;;;;7.82;2.15;;;;;;;12.25;56.39;99081.50;4470571;32;20120;-83
2022/09/22 04:54:48;;;;;;;7.35;2.45;;;;;;;12.36;56.41;99079.94;4470386;32;20097;-83
2022/09/22 04:57:13;;;;;;;6.72;2.20;;;;;;;12.43;56.42;99084.88;4470277;32;20088;-84
2022/09/22 04:59:39;;;;;;;5.30;1.90;;;;;;;12.52;55.85;99081.72;4470484;32;20092;-84
2022/09/22 05:02:04;;;;;;;7.60;2.55;;;;;;;11.93;57.04;99095.56;4470332;32;20448;-84
2022/09/22 05:04:30;;;;;;;7.50;2.40;;;;;;;11.63;58.48;99084.88;4470397;32;20504;-85
2022/09/22 05:06:55;;;;;;;8.48;2.58;;;;;;;11.86;57.89;99093.31;4470118;32;20150;-84
2022/09/22 05:09:21;;;;;;;7.05;2.08;;;;;;;11.91;57.77;99086.03;4468989;32;20119;-84
2022/09/22 05:11:49;;;;;;;9.43;2.67;;;;;;;12.08;57.42;99079.81;4468878;32;20147;-83
2022/09/22 05:14:15;;;;;;;8.15;2.17;;;;;;;12.23;57.14;99078.06;4470054;32;20376;-83
2022/09/22 05:16:43;;;;;;;8.00;2.30;;;;;;;12.40;56.96;99078.00;4468842;32;20143;-83
2022/09/22 05:19:09;;;;;;;8.32;2.62;;;;;;;12.45;56.86;99077.72;4469008;32;20099;-83
2022/09/22 05:21:35;;;;;;;5.97;2.00;;;;;;;12.40;56.95;99078.00;4468895;32;20152;-83
2022/09/22 05:24:01;;;;;;;7.05;2.25;;;;;;;12.38;56.23;99075.44;4470184;32;20159;-83
2022/09/22 05:26:27;;;;;;;7.28;2.10;;;;;;;12.44;56.44;99081.28;4468730;32;20424;-84
2022/09/22 05:28:52;;;;;;;7.32;2.37;;;;;;;12.34;56.09;99071.25;4469890;32;20143;-84
2022/09/22 05:31:18;;;;;;;6.70;1.90;;;;;;;12.16;56.85;99078.41;4468675;32;20124;-85
2022/09/22 05:33:43;;;;;;;5.95;1.95;;;;;;;12.67;55.68;99074.66;4468561;32;20109;-83
2022/09/22 05:36:09;;;;;;;6.70;2.15;;;;;;;12.75;55.11;99075.09;4469877;32;20085;-83
2022/09/22 05:38:34;;;;;;;7.65;2.00;;;;;;;12.93;54.99;99081.91;4469358;32;20088;-84
2022/09/22 05:41:00;;;;;;;7.50;2.30;;;;;;;12.93;54.99;99070.50;4472157;32;20092;-83
2022/09/22 05:43:25;;;;;;;5.65;1.95;;;;;;;13.28;54.26;99080.75;4472134;32;20119;-83
2022/09/22 05:45:51;;;;;;;6.05;2.00;;;;;;;13.40;53.84;99084.44;4472046;32;20117;-83
2022/09/22 05:48:16;;;;;;;8.23;2.25;;;;;;;13.20;54.44;99083.00;4472011;32;20111;-83
2022/09/22 05:50:42;;;;;;;6.65;2.33;;;;;;;13.27;54.37;99079.03;4470988;32;20120;-83
2022/09/22 05:53:09;;;;;;;6.60;2.28;;;;;;;13.65;52.92;99081.97;4472084;32;20096;-83
2022/09/22 05:55:35;;;;;;;7.75;2.33;;;;;;;13.50;53.34;99088.22;4471181;32;20152;-83
2022/09/22 05:58:01;;;;;;;7.37;2.20;;;;;;;13.27;53.78;99079.91;4471256;32;20085;-83
2022/09/22 06:00:27;;;;;;;6.35;2.10;;;;;;;13.77;52.24;99083.00;4470698;32;20173;-82
2022/09/22 06:02:53;;;;;;;5.55;1.85;;;;;;;13.84;52.57;99076.38;4470911;32;20131;-79
2022/09/22 06:05:18;;;;;;;7.37;2.20;;;;;;;13.64;52.76;99090.88;4458677;32;20387;-81
2022/09/22 06:07:44;;;;;;;6.90;1.90;;;;;;;13.98;52.72;99079.97;4455763;32;20381;-83
2022/09/22 06:10:12;;;;;;;6.78;1.80;;;;;;;13.91;52.40;99077.69;4455835;32;20093;-83
2022/09/22 06:12:38;;;;;;;6.90;2.05;;;;;;;13.98;52.64;99079.97;4455221;32;20123;-89
2022/09/22 06:15:05;;;;;;;5.75;1.80;;;;;;;13.74;53.01;99078.75;4459585;32;20284;-85
2022/09/22 06:17:30;;;;;;;6.55;2.05;;;;;;;14.48;50.58;99089.91;4470665;32;20080;-85
2022/09/22 06:19:57;;;;;;;5.53;1.98;;;;;;;14.72;49.93;99089.28;4471784;32;20086;-81
2022/09/22 06:22:23;;;;;;;9.30;2.20;;;;;;;14.54;51.20;99094.84;4471674;32;20734;-81
2022/09/22 06:24:49;;;;;;;8.80;2.08;;;;;;;15.06;49.70;99084.34;4471434;32;20093;-81
2022/09/22 06:27:15;;;;;;;8.73;2.70;;;;;;;15.13;48.29;99091.78;4470846;32;20089;-80
2022/09/22 06:29:41;;;;;;;6.97;2.30;;;;;;;14.72;51.04;99095.44;4470882;32;20679;-81
2022/09/22 06:32:07;;;;;;;6.95;2.40;;;;;;;14.48;51.53;99102.31;4472194;32;20113;-85
2022/09/22 06:34:34;;;;;;;6.80;1.90;;;;;;;14.80;50.42;99091.44;4471990;32;20118;-87
2022/09/22 06:36:59;;;;;;;6.75;2.08;;;;;;;14.96;49.61;99097.38;4472015;32;20080;-87
2022/09/22 06:39:25;;;;;;;6.75;2.40;;;;;;;15.09;49.43;99095.59;4471665;32;20139;-88
2022/09/22 06:41:50;;;;;;;7.15;2.22;;;;;;;15.03;49.95;99092.53;4471800;32;20545;-87
2022/09/22 06:44:16;;;;;;;8.57;2.40;;;;;;;15.21;49.02;99093.91;4471702;32;20080;-88
2022/09/22 06:46:41;;;;;;;6.90;2.30;;;;;;;15.09;49.50;99102.72;4471746;32;20379;-90
2022/09/22 06:49:07;;;;;;;7.18;2.47;;;;;;;15.15;49.50;99089.03;4470346;32;20480;-89
2022/09/22 06:51:34;;;;;;;8.52;2.50;;;;;;;15.12;49.60;99090.09;4471724;32;20139;-85
2022/09/22 06:54:03;;;;;;;7.43;2.22;;;;;;;15.07;49.83;99096.66;4471689;32;20103;-85
2022/09/22 06:56:29;;;;;;;8.38;2.72;;;;;;;14.91;51.05;99096.84;4471649;32;20096;-86
2022/09/22 06:58:55;;;;;;;7.78;2.67;;;;;;;15.15;49.78;99094.34;4470532;32;20493;-85
2022/09/22 07:01:22;;;;;;;8.55;2.78;;;;;;;15.18;49.43;99087.97;4470431;32;20140;-84
2022/09/22 07:03:47;;;;;;;8.68;2.60;;;;;;;15.30;49.94;99087.97;4471563;32;20088;-86
2022/09/22 07:06:17;;;;;;;7.43;2.33;;;;;;;15.38;48.87;99086.59;4471633;32;20447;-84
2022/09/22 07:08:43;;;;;;;7.57;2.55;;;;;;;15.38;49.10;99089.25;4471607;32;20486;-84
2022/09/22 07:11:09;;;;;;;5.07;1.92;;;;;;;15.34;48.77;99092.09;4470538;32;20120;-83
2022/09/22 07:13:38;;;;;;;7.47;2.62;;;;;;;15.13;48.98;99089.13;4471539;32;20429;-85
2022/09/22 07:16:16;;;;;;;7.55;2.25;;;;;;;15.41;48.80;99083.72;4482303;32;20107;-84
2022/09/22 07:18:44;;;;;;;8.75;2.62;;;;;;;15.73;47.40;99092.09;4486751;32;20100;-85
2022/09/22 07:21:21;;;;;;;8.50;2.00;;;;;;;15.62;48.01;99084.00;4472269;32;20505;-85
2022/09/22 07:23:48;;;;;;;7.32;2.33;;;;;;;15.60;47.87;99088.59;4471813;32;20144;-85
2022/09/22 07:26:18;;;;;;;7.37;2.00;;;;;;;15.78;46.41;99078.50;4473026;32;20102;-85
2022/09/22 07:28:45;;;;;;;7.97;2.33;;;;;;;16.12;45.84;99074.25;4472891;32;20183;-84
2022/09/22 07:31:11;;;;;;;6.43;1.95;;;;;;;16.16;45.36;99080.19;4487177;32;20122;-85
2022/09/22 07:33:39;;;;;;;6.40;2.00;;;;;;;16.26;45.60;99076.75;4472808;32;20585;-85
2022/09/22 07:36:09;;;;;;;6.55;2.00;;;;;;;16.07;45.40;99079.03;4487068;32;20136;-85
2022/09/22 07:38:36;;;;;;;6.62;1.87;;;;;;;16.25;45.88;99082.19;4486993;32;20439;-85
2022/09/22 07:41:04;;;;;;;6.62;2.10;;;;;;;16.30;44.56;99080.03;4472661;32;20177;-85
2022/09/22 07:43:29;;;;;;;5.53;2.03;;;;;;;16.20;45.65;99084.31;4472886;32;20092;-85
2022/09/22 07:45:58;;;;;;;7.25;2.05;;;;;;;16.82;43.50;99075.31;4472800;32;20104;-85
2022/09/22 07:48:36;;;;;;;5.28;1.67;;;;;;;16.84;42.93;99076.91;4486910;32;20546;-84
2022/09/22 07:51:21;;;;;;;3.65;1.50;;;;;;;17.09;41.52;99083.00;4474162;32;20107;-85
2022/09/22 07:53:53;;;;;;;6.35;1.95;;;;;;;17.17;41.97;99074.44;4472787;32;20088;-84
2022/09/22 07:56:20;;;;;;;8.60;3.30;;;;;;;17.39;43.11;99082.47;4472572;32;20088;-85
2022/09/22 07:58:52;;;;;;;8.95;3.12;;;;;;;17.44;44.94;99082.94;4472752;32;20089;-84
2022/09/22 08:01:23;;;;;;;9.75;2.87;;;;;;;17.30;46.04;99089.34;4472009;32;20134;-85
2022/09/22 08:03:49;;;;;;;11.98;2.85;;;;;;;17.41;46.05;99093.00;4487269;32;20460;-84
2022/09/22 08:06:17;;;;;;;6.90;2.15;;;;;;;17.12;45.74;99098.75;4472845;32;20462;-84
2022/09/22 08:08:49;;;;;;;6.03;1.90;;;;;;;17.10;45.49;99098.88;4472670;32;20116;-84
2022/09/22 08:11:19;;;;;;;7.22;2.10;;;;;;;16.87;44.67;99105.94;4472816;32;20112;-85
2022/09/22 08:13:54;;;;;;;5.50;2.00;;;;;;;17.25;43.63;99109.31;4459302;32;20096;-85
2022/09/22 08:16:27;;;;;;;6.80;2.30;;;;;;;17.50;42.99;99102.94;4472352;32;20115;-85
2022/09/22 08:18:55;;;;;;;5.72;2.20;;;;;;;17.66;42.78;99103.41;4459598;32;20108;-85
2022/09/22 08:21:31;;;;;;;8.05;2.50;;;;;;;17.43;43.37;99099.88;4459615;32;20104;-85
2022/09/22 08:23:58;;;;;;;7.85;2.72;;;;;;;17.51;43.65;99104.63;4472573;32;20145;-84
2022/09/22 08:26:23;;;;;;;7.25;2.03;;;;;;;17.61;42.74;99102.06;4472475;32;20417;-85
2022/09/22 08:28:54;;;;;;;7.43;2.03;;;;;;;17.12;42.71;99111.22;4472474;32;20157;-85
2022/09/22 08:31:20;;;;;;;6.93;2.42;;;;;;;17.34;43.54;99102.41;4486816;32;20108;-84
2022/09/22 08:33:48;;;;;;;6.00;2.20;;;;;;;17.62;42.71;99103.78;4472299;32;20096;-85
2022/09/22 08:36:14;;;;;;;6.82;2.10;;;;;;;17.20;43.53;99098.16;4486567;32;20092;-85
2022/09/22 08:38:39;;;;;;;7.22;2.60;;;;;;;17.10;44.17;99098.03;4486348;32;20096;-84
2022/09/22 08:41:37;;;;;;;4.87;1.98;;;;;;;17.58;43.37;99095.19;4472161;32;20093;-85
2022/09/22 08:44:09;;;;;;;6.35;2.33;;;;;;;17.42;43.45;99095.53;4406628;32;20445;-85
2022/09/22 08:46:42;;;;;;;8.98;2.85;;;;;;;17.45;42.92;99097.94;4394109;32;20108;-85
2022/09/22 08:52:32;;;;;;;7.50;2.35;;;;;;;18.10;41.82;99092.00;4396045;32;20204;-85
2022/09/22 08:54:58;;;;;;;7.80;2.62;;;;;;;18.13;41.86;99097.09;4406581;32;20116;-85
2022/09/22 08:57:35;;;;;;;7.07;2.50;;;;;;;18.42;41.91;99089.41;4406466;32;20397;-85
2022/09/22 09:00:06;;;;;;;7.43;2.50;;;;;;;18.51;40.98;99091.31;4393903;32;20785;-85
2022/09/22 09:02:58;;;;;;;7.60;2.80;;;;;;;18.73;41.12;99086.84;4393714;32;20179;-85
2022/09/22 09:05:46;;;;;;;7.03;2.47;;;;;;;18.80;40.54;99086.25;4393695;32;20094;-85
2022/09/22 09:08:35;;;;;;;7.22;2.33;;;;;;;19.14;39.93;99083.41;4394006;32;20142;-85
2022/09/22 09:11:19;;;;;;;6.95;2.28;;;;;;;19.20;39.32;99085.53;4398381;32;20113;-85
2022/09/22 09:14:03;;;;;;;7.62;2.83;;;;;;;18.72;40.51;99085.19;4407089;32;20179;-85
2022/09/22 09:16:37;;;;;;;7.80;2.33;;;;;;;18.54;40.10;99093.69;4395549;32;20484;-85
2022/09/22 09:19:15;;;;;;;6.43;2.28;;;;;;;19.34;39.63;99087.03;4408374;32;20086;-85
2022/09/22 09:21:49;;;;;;;8.70;2.95;;;;;;;19.67;38.75;99086.91;4478860;32;20154;-85
2022/09/22 09:24:20;;;;;;;6.78;2.30;;;;;;;19.18;39.13;99089.28;4473988;32;20130;-85
2022/09/22 09:26:47;;;;;;;7.30;2.37;;;;;;;19.70;38.25;99087.47;4473852;32;20159;-85
2022/09/22 09:29:18;;;;;;;8.80;2.70;;;;;;;19.84;38.08;99089.81;4487934;32;20088;-85
2022/09/22 09:31:51;;;;;;;7.20;2.80;;;;;;;19.60;38.40;99094.59;4473814;32;20131;-85
2022/09/22 09:34:19;;;;;;;8.10;2.47;;;;;;;19.57;38.13;99092.22;4473812;32;20112;-85
2022/09/22 09:36:57;;;;;;;;;;;;;;;19.01;39.68;99096.94;4474108;32;20088;-85
2022/09/22 09:39:28;;;;;;;6.40;2.15;;;;;;;19.31;39.86;99097.12;4487929;32;20008;-85
2022/09/22 09:41:55;;;;;;;6.03;2.00;;;;;;;19.25;39.43;99101.16;4460604;32;20101;-85
2022/09/22 09:44:29;;;;;;;6.05;2.10;;;;;;;19.11;40.26;99097.00;4473708;32;20164;-85
2022/09/22 09:47:06;;;;;;;5.62;1.85;;;;;;;18.07;41.66;99095.78;4487909;32;20545;-85
2022/09/22 09:49:32;;;;;;;5.05;1.75;;;;;;;18.73;39.87;99102.88;4473653;32;20099;-85
2022/09/22 09:52:00;;;;;;;6.80;2.00;;;;;;;18.95;39.22;99100.13;4487795;32;20096;-85
2022/09/22 09:54:26;;;;;;;;;;;;;;;19.08;39.38;99104.41;4473796;32;20096;-85
2022/09/22 09:57:13;;;;;;;7.05;2.05;;;;;;;18.35;40.79;99101.53;4487947;32;19983;-85
2022/09/22 10:02:34;;;;;;;6.68;2.55;;;;;;;18.48;40.97;99102.22;4475614;32;20157;-85
2022/09/22 10:05:02;;;;;;;9.20;2.20;;;;;;;18.23;41.45;99111.38;4473526;32;20100;-85
2022/09/22 10:07:29;;;;;;;;;;;;;;;18.34;40.62;99102.53;4460633;32;20119;-85
2022/09/22 10:09:55;;;;;;;5.30;2.03;;;;;;;18.43;40.88;99102.59;4473489;32;20333;-85
2022/09/22 10:12:25;;;;;;;7.03;2.47;;;;;;;18.22;41.26;99101.69;4473296;32;20122;-85
2022/09/22 10:14:55;;;;;;;6.07;2.20;;;;;;;18.32;40.92;99107.13;4487299;32;20148;-85
2022/09/22 10:17:28;;;;;;;6.18;2.20;;;;;;;18.57;40.84;99098.81;4473420;32;20080;-85
2022/09/22 10:20:19;;;;;;;6.20;2.28;;;;;;;18.72;40.93;99099.34;4487544;32;20076;-85
2022/09/22 10:22:44;;;;;;;6.50;2.28;;;;;;;19.02;41.04;99100.44;4487714;32;20118;-85
2022/09/22 10:25:21;;;;;;;6.37;2.28;;;;;;;19.21;40.45;99100.56;4472915;32;20452;-85
2022/09/22 10:28:03;;;;;;;6.43;2.15;;;;;;;19.53;39.40;99091.63;4460210;32;20126;-84
2022/09/22 10:30:36;;;;;;;7.18;2.12;;;;;;;19.68;38.58;99091.25;4473229;32;20110;-85
2022/09/22 10:33:12;;;;;;;6.43;2.45;;;;;;;19.97;38.46;99097.59;4487573;32;20092;-84
2022/09/22 10:35:39;;;;;;;6.47;2.22;;;;;;;19.94;37.95;99086.31;4487605;32;20092;-85
2022/09/22 10:38:18;;;;;;;6.75;2.50;;;;;;;20.34;37.49;99086.28;4487545;32;20153;-85
2022/09/22 10:40:47;;;;;;;7.40;2.25;;;;;;;20.40;36.59;99080.38;4487752;32;20089;-84
2022/09/22 10:43:34;;;;;;;6.97;2.20;;;;;;;20.56;36.83;99078.97;4473527;32;20133;-85
2022/09/22 10:46:15;;;;;;;6.93;2.28;;;;;;;20.66;37.08;99085.19;4473802;32;20455;-84
2022/09/22 10:49:11;;;;;;;6.50;2.10;;;;;;;20.38;36.90;99076.97;4473310;32;20106;-84
2022/09/22 10:51:45;;;;;;;5.43;1.92;;;;;;;20.83;35.52;99066.75;4486771;32;20073;-84
2022/09/22 10:54:23;;;;;;;4.70;1.92;;;;;;;21.07;34.49;99064.44;4487318;32;20380;-85
2022/09/22 10:56:52;;;;;;;5.78;2.00;;;;;;;20.99;34.11;99057.09;4487539;32;20454;-84
2022/09/22 10:59:43;;;;;;;6.72;1.90;;;;;;;21.01;34.58;99062.31;4460167;32;20096;-84
2022/09/22 11:02:17;;;;;;;5.80;1.90;;;;;;;21.15;33.83;99063.72;4487382;32;20073;-84
2022/09/22 11:04:53;;;;;;;6.32;2.08;;;;;;;21.01;34.07;99056.97;4473085;32;20101;-85
2022/09/22 11:13:50;;;;;;;5.68;1.90;;;;;;;20.11;34.36;99074.09;4487301;32;20110;-84
2022/09/22 11:16:27;;;;;;;7.10;2.22;;;;;;;19.51;36.32;99068.66;4472841;32;20101;-85
2022/09/22 11:18:54;;;;;;;4.82;1.90;;;;;;;19.41;36.76;99066.81;4487258;32;20087;-85
2022/09/22 11:21:35;;;;;;;6.30;2.17;;;;;;;19.84;36.17;99060.41;4487055;32;20151;-84
2022/09/22 11:24:09;;;;;;;5.62;2.30;;;;;;;19.87;37.12;99061.94;4473031;32;20168;-84
2022/09/22 11:26:38;;;;;;;6.28;2.20;;;;;;;19.90;38.44;99060.84;4487269;32;20115;-84
2022/09/22 11:29:27;;;;;;;6.18;2.08;;;;;;;19.87;39.30;99053.09;4487122;32;20483;-84
2022/09/22 11:32:05;;;;;;;7.35;2.20;;;;;;;19.98;38.25;99052.97;4487231;32;20184;-84
2022/09/22 11:34:50;;;;;;;7.47;2.08;;;;;;;20.05;36.95;99046.09;4487012;32;20086;-84
2022/09/22 11:37:49;;;;;;;6.00;2.20;;;;;;;20.31;37.82;99048.25;4471858;32;20111;-85
2022/09/22 11:40:32;;;;;;;5.50;2.05;;;;;;;19.83;37.03;99033.78;4487484;32;20104;-84
2022/09/22 11:43:00;;;;;;;6.60;2.33;;;;;;;20.41;35.91;99039.22;4487080;32;20093;-84
2022/09/22 11:45:49;;;;;;;6.55;2.42;;;;;;;20.51;35.92;99031.19;4486994;32;20156;-84
2022/09/22 11:48:49;;;;;;;4.53;1.80;;;;;;;20.54;35.54;99028.25;4487164;32;20092;-84
2022/09/22 11:51:42;;;;;;;6.12;2.22;;;;;;;20.48;36.04;99020.78;4487007;32;20118;-84
2022/09/22 11:54:45;;;;;;;7.20;2.40;;;;;;;20.48;39.03;99023.47;4486885;32;20438;-84
2022/09/22 11:57:14;;;;;;;5.65;2.08;;;;;;;20.43;39.28;99017.69;4487101;32;20102;-84
2022/09/22 12:00:04;;;;;;;7.35;2.12;;;;;;;20.36;36.97;99008.56;4473075;32;20093;-84
2022/09/22 12:02:40;;;;;;;5.28;2.10;;;;;;;20.21;37.09;99019.66;4472800;32;20156;-84